Hlavní strana
METAR-TAF:

METAR-TAF

Letiště :

Letecká základna

Tafraoui, Alžírsko

zeměpisná šířka: 35-32-33N, zeměpisná délka: 000-31-56W, výška: 112 m

Aktuální stav počasí

Zpráva byla vytvořena před 1 hodinou a 51 minutami, v 01:00 UTC
Západojihozápadní vítr 8 kt
Teplota 12°C
Vlhkost vzduchu 94%
Tlak 1015 hPa
Viditelnost 10 km a více
Polojasno ve výšce 2600 ft
Polojasno ve výšce 8000 ft

METAR: DAOL 080100Z 24008KT 9999 SCT026 SCT080 12/11 Q1015

Čas: 03:51 (02:51 UTC)


TAF: chybějící

Stav a předpovědi počasí z více než 4 000 letišť (zprávy METAR a TAF).

Červené a žluté tečky na mapě představují dostupné meteorologické stanice.

Když kurzor umístíte na tečku, zobrazí se název stanice.

Pak kliknutím zobrazíte stav a předpověď počasí.

Chcete-li změnit mapu, kliknutím na zelené tlačítko se znaménkem +mapu přiblížíte, kliknutím na zelené tlačítko se znaménkem – mapu oddálíte a kliknutím na zelené šipky přejdete na sousední mapy.


METAR-TAF: